Terminal Aerodrome Forecast
Issued by NWS

Home | Current Version | Previous Version | Graphics & Text | Print | Product List | Glossary On
Versions: 1 2 3 4 5 6 7 8 9 10 11 12 13 14
000
FTUS43 KICT 161720
TAFHUT
TAF
KHUT 161720Z 1618/1718 17009KT P6SM BKN025
      TEMPO 1618/1620 BKN020
     FM162000 31011KT P6SM SCT020 BKN035
     FM170000 33008KT P6SM SCT150=

USA.gov is the U.S. government's official web portal to all federal, state and local government web resources and services.